sensor_id;sensor_type;location;lat;lon;timestamp;temperature;humidity
22779;DHT22;11556;51.194;3.800;2023-07-29T00:00:49;18.20;99.90
22779;DHT22;11556;51.194;3.800;2023-07-29T00:03:14;18.20;99.90
22779;DHT22;11556;51.194;3.800;2023-07-29T00:05:40;18.00;99.90
22779;DHT22;11556;51.194;3.800;2023-07-29T00:08:06;18.00;99.90
22779;DHT22;11556;51.194;3.800;2023-07-29T00:10:32;18.00;99.90
22779;DHT22;11556;51.194;3.800;2023-07-29T00:12:58;18.00;99.90
22779;DHT22;11556;51.194;3.800;2023-07-29T00:15:24;18.00;99.90
22779;DHT22;11556;51.194;3.800;2023-07-29T00:17:50;17.90;99.90
22779;DHT22;11556;51.194;3.800;2023-07-29T00:20:15;17.90;99.90
22779;DHT22;11556;51.194;3.800;2023-07-29T00:22:41;17.90;99.90
22779;DHT22;11556;51.194;3.800;2023-07-29T00:25:07;17.90;99.90
22779;DHT22;11556;51.194;3.800;2023-07-29T00:27:33;17.90;99.90
22779;DHT22;11556;51.194;3.800;2023-07-29T00:29:58;17.80;99.90
22779;DHT22;11556;51.194;3.800;2023-07-29T00:32:24;17.80;99.90
22779;DHT22;11556;51.194;3.800;2023-07-29T00:34:50;17.80;99.90
22779;DHT22;11556;51.194;3.800;2023-07-29T00:37:15;17.80;99.90
22779;DHT22;11556;51.194;3.800;2023-07-29T00:39:41;17.80;99.90
22779;DHT22;11556;51.194;3.800;2023-07-29T00:42:07;17.70;99.90
22779;DHT22;11556;51.194;3.800;2023-07-29T00:44:32;17.70;99.90
22779;DHT22;11556;51.194;3.800;2023-07-29T00:46:59;17.70;99.90
22779;DHT22;11556;51.194;3.800;2023-07-29T00:49:27;17.70;99.90
22779;DHT22;11556;51.194;3.800;2023-07-29T00:51:53;17.60;99.90
22779;DHT22;11556;51.194;3.800;2023-07-29T00:54:18;17.60;99.90
22779;DHT22;11556;51.194;3.800;2023-07-29T00:56:44;17.60;99.90
22779;DHT22;11556;51.194;3.800;2023-07-29T00:59:10;17.50;99.90
22779;DHT22;11556;51.194;3.800;2023-07-29T01:01:36;17.50;99.90
22779;DHT22;11556;51.194;3.800;2023-07-29T01:04:02;17.40;99.90
22779;DHT22;11556;51.194;3.800;2023-07-29T01:12:22;17.60;99.90
22779;DHT22;11556;51.194;3.800;2023-07-29T01:15:14;17.60;99.90
22779;DHT22;11556;51.194;3.800;2023-07-29T01:17:46;17.60;99.90
22779;DHT22;11556;51.194;3.800;2023-07-29T01:20:17;17.60;99.90
22779;DHT22;11556;51.194;3.800;2023-07-29T01:22:45;17.50;99.90
22779;DHT22;11556;51.194;3.800;2023-07-29T01:25:12;17.50;99.90
22779;DHT22;11556;51.194;3.800;2023-07-29T01:27:38;17.50;99.90
22779;DHT22;11556;51.194;3.800;2023-07-29T01:30:05;17.60;99.90
22779;DHT22;11556;51.194;3.800;2023-07-29T01:32:35;17.50;99.90
22779;DHT22;11556;51.194;3.800;2023-07-29T01:35:25;17.60;99.90
22779;DHT22;11556;51.194;3.800;2023-07-29T01:37:58;17.70;99.90
22779;DHT22;11556;51.194;3.800;2023-07-29T01:40:27;17.70;99.90
22779;DHT22;11556;51.194;3.800;2023-07-29T01:42:54;17.70;99.90
22779;DHT22;11556;51.194;3.800;2023-07-29T01:45:23;17.70;99.90
22779;DHT22;11556;51.194;3.800;2023-07-29T01:47:50;17.70;99.90
22779;DHT22;11556;51.194;3.800;2023-07-29T01:50:15;17.70;99.90
22779;DHT22;11556;51.194;3.800;2023-07-29T01:52:41;17.70;99.90
22779;DHT22;11556;51.194;3.800;2023-07-29T01:55:07;17.70;99.90
22779;DHT22;11556;51.194;3.800;2023-07-29T01:57:32;17.60;99.90
22779;DHT22;11556;51.194;3.800;2023-07-29T01:59:58;17.60;99.90
22779;DHT22;11556;51.194;3.800;2023-07-29T02:02:24;17.60;99.90
22779;DHT22;11556;51.194;3.800;2023-07-29T02:04:49;17.60;99.90
22779;DHT22;11556;51.194;3.800;2023-07-29T02:07:17;17.60;99.90
22779;DHT22;11556;51.194;3.800;2023-07-29T02:09:44;17.80;99.90
22779;DHT22;11556;51.194;3.800;2023-07-29T02:12:09;17.70;99.90
22779;DHT22;11556;51.194;3.800;2023-07-29T02:14:35;17.70;99.90
22779;DHT22;11556;51.194;3.800;2023-07-29T02:17:00;17.60;99.90
22779;DHT22;11556;51.194;3.800;2023-07-29T02:19:26;17.60;99.90
22779;DHT22;11556;51.194;3.800;2023-07-29T02:21:51;17.60;99.90
22779;DHT22;11556;51.194;3.800;2023-07-29T02:24:17;17.70;99.90
22779;DHT22;11556;51.194;3.800;2023-07-29T02:26:43;17.60;99.90
22779;DHT22;11556;51.194;3.800;2023-07-29T02:29:08;17.60;99.90
22779;DHT22;11556;51.194;3.800;2023-07-29T02:31:34;17.60;99.90
22779;DHT22;11556;51.194;3.800;2023-07-29T02:34:00;17.60;99.90
22779;DHT22;11556;51.194;3.800;2023-07-29T02:36:26;17.60;99.90
22779;DHT22;11556;51.194;3.800;2023-07-29T02:38:51;17.60;99.90
22779;DHT22;11556;51.194;3.800;2023-07-29T02:41:17;17.60;99.90
22779;DHT22;11556;51.194;3.800;2023-07-29T02:43:43;17.50;99.90
22779;DHT22;11556;51.194;3.800;2023-07-29T02:46:13;17.50;99.90
22779;DHT22;11556;51.194;3.800;2023-07-29T02:48:38;17.50;99.90
22779;DHT22;11556;51.194;3.800;2023-07-29T02:51:04;17.40;99.90
22779;DHT22;11556;51.194;3.800;2023-07-29T02:53:29;17.50;99.90
22779;DHT22;11556;51.194;3.800;2023-07-29T02:55:55;17.40;99.90
22779;DHT22;11556;51.194;3.800;2023-07-29T02:58:21;17.40;99.90
22779;DHT22;11556;51.194;3.800;2023-07-29T03:00:46;17.40;99.90
22779;DHT22;11556;51.194;3.800;2023-07-29T03:03:14;17.40;99.90
22779;DHT22;11556;51.194;3.800;2023-07-29T03:05:39;17.40;99.90
22779;DHT22;11556;51.194;3.800;2023-07-29T03:08:05;17.40;99.90
22779;DHT22;11556;51.194;3.800;2023-07-29T03:10:30;17.50;99.90
22779;DHT22;11556;51.194;3.800;2023-07-29T03:12:56;17.50;99.90
22779;DHT22;11556;51.194;3.800;2023-07-29T03:15:25;17.60;99.90
22779;DHT22;11556;51.194;3.800;2023-07-29T03:17:52;17.50;99.90
22779;DHT22;11556;51.194;3.800;2023-07-29T03:20:17;17.50;99.90
22779;DHT22;11556;51.194;3.800;2023-07-29T03:22:44;17.40;99.90
22779;DHT22;11556;51.194;3.800;2023-07-29T03:25:09;17.30;99.90
22779;DHT22;11556;51.194;3.800;2023-07-29T03:27:35;17.40;99.90
22779;DHT22;11556;51.194;3.800;2023-07-29T03:30:03;17.30;99.90
22779;DHT22;11556;51.194;3.800;2023-07-29T03:32:28;17.30;99.90
22779;DHT22;11556;51.194;3.800;2023-07-29T03:34:54;17.30;99.90
22779;DHT22;11556;51.194;3.800;2023-07-29T03:37:20;17.40;99.90
22779;DHT22;11556;51.194;3.800;2023-07-29T03:39:47;17.40;99.90
22779;DHT22;11556;51.194;3.800;2023-07-29T03:42:12;17.30;99.90
22779;DHT22;11556;51.194;3.800;2023-07-29T03:44:38;17.40;99.90
22779;DHT22;11556;51.194;3.800;2023-07-29T03:47:05;17.40;99.90
22779;DHT22;11556;51.194;3.800;2023-07-29T03:49:31;17.40;99.90
22779;DHT22;11556;51.194;3.800;2023-07-29T03:51:57;17.50;99.90
22779;DHT22;11556;51.194;3.800;2023-07-29T03:54:22;17.50;99.90
22779;DHT22;11556;51.194;3.800;2023-07-29T03:56:48;17.60;99.90
22779;DHT22;11556;51.194;3.800;2023-07-29T03:59:14;17.50;99.90
22779;DHT22;11556;51.194;3.800;2023-07-29T04:01:39;17.50;99.90
22779;DHT22;11556;51.194;3.800;2023-07-29T04:04:05;17.50;99.90
22779;DHT22;11556;51.194;3.800;2023-07-29T04:06:30;17.40;99.90
22779;DHT22;11556;51.194;3.800;2023-07-29T04:08:57;17.40;99.90
22779;DHT22;11556;51.194;3.800;2023-07-29T04:11:23;17.50;99.90
22779;DHT22;11556;51.194;3.800;2023-07-29T04:13:49;17.40;99.90
22779;DHT22;11556;51.194;3.800;2023-07-29T04:16:15;17.40;99.90
22779;DHT22;11556;51.194;3.800;2023-07-29T04:18:42;17.40;99.90
22779;DHT22;11556;51.194;3.800;2023-07-29T04:21:07;17.50;99.90
22779;DHT22;11556;51.194;3.800;2023-07-29T04:23:33;17.50;99.90
22779;DHT22;11556;51.194;3.800;2023-07-29T04:25:58;17.50;99.90
22779;DHT22;11556;51.194;3.800;2023-07-29T04:28:24;17.50;99.90
22779;DHT22;11556;51.194;3.800;2023-07-29T04:30:50;17.60;99.90
22779;DHT22;11556;51.194;3.800;2023-07-29T04:33:15;17.60;99.90
22779;DHT22;11556;51.194;3.800;2023-07-29T04:35:41;17.50;99.90
22779;DHT22;11556;51.194;3.800;2023-07-29T04:38:06;17.40;99.90
22779;DHT22;11556;51.194;3.800;2023-07-29T04:40:33;17.40;99.90
22779;DHT22;11556;51.194;3.800;2023-07-29T04:43:00;17.40;99.90
22779;DHT22;11556;51.194;3.800;2023-07-29T04:45:30;17.40;99.90
22779;DHT22;11556;51.194;3.800;2023-07-29T04:47:56;17.40;99.90
22779;DHT22;11556;51.194;3.800;2023-07-29T04:50:22;17.40;99.90
22779;DHT22;11556;51.194;3.800;2023-07-29T04:52:47;17.30;99.90
22779;DHT22;11556;51.194;3.800;2023-07-29T04:55:13;17.40;99.90
22779;DHT22;11556;51.194;3.800;2023-07-29T04:57:39;17.60;99.90
22779;DHT22;11556;51.194;3.800;2023-07-29T05:00:04;17.60;99.90
22779;DHT22;11556;51.194;3.800;2023-07-29T05:02:30;17.70;99.90
22779;DHT22;11556;51.194;3.800;2023-07-29T05:04:56;17.70;99.90
22779;DHT22;11556;51.194;3.800;2023-07-29T05:07:21;17.80;99.90
22779;DHT22;11556;51.194;3.800;2023-07-29T05:09:48;17.90;99.90
22779;DHT22;11556;51.194;3.800;2023-07-29T05:12:13;18.10;99.90
22779;DHT22;11556;51.194;3.800;2023-07-29T05:14:39;18.20;99.90
22779;DHT22;11556;51.194;3.800;2023-07-29T05:17:05;18.20;99.90
22779;DHT22;11556;51.194;3.800;2023-07-29T05:19:30;18.20;99.90
22779;DHT22;11556;51.194;3.800;2023-07-29T05:21:56;18.30;99.90
22779;DHT22;11556;51.194;3.800;2023-07-29T05:24:23;18.30;99.90
22779;DHT22;11556;51.194;3.800;2023-07-29T05:26:48;18.40;99.90
22779;DHT22;11556;51.194;3.800;2023-07-29T05:29:14;18.60;99.90
22779;DHT22;11556;51.194;3.800;2023-07-29T05:31:40;18.70;99.90
22779;DHT22;11556;51.194;3.800;2023-07-29T05:34:06;19.60;99.90
22779;DHT22;11556;51.194;3.800;2023-07-29T05:36:31;21.00;99.90
22779;DHT22;11556;51.194;3.800;2023-07-29T05:38:57;22.30;99.90
22779;DHT22;11556;51.194;3.800;2023-07-29T05:41:22;23.10;99.90
22779;DHT22;11556;51.194;3.800;2023-07-29T05:43:48;23.60;99.90
22779;DHT22;11556;51.194;3.800;2023-07-29T05:46:14;24.50;99.90
22779;DHT22;11556;51.194;3.800;2023-07-29T05:48:39;25.60;99.90
22779;DHT22;11556;51.194;3.800;2023-07-29T05:51:05;26.50;99.90
22779;DHT22;11556;51.194;3.800;2023-07-29T05:53:31;26.50;99.90
22779;DHT22;11556;51.194;3.800;2023-07-29T05:55:57;26.30;99.90
22779;DHT22;11556;51.194;3.800;2023-07-29T05:58:22;26.40;99.90
22779;DHT22;11556;51.194;3.800;2023-07-29T06:00:48;25.70;99.90
22779;DHT22;11556;51.194;3.800;2023-07-29T06:03:13;24.50;99.90
22779;DHT22;11556;51.194;3.800;2023-07-29T06:05:39;23.40;99.90
22779;DHT22;11556;51.194;3.800;2023-07-29T06:08:05;22.60;99.90
22779;DHT22;11556;51.194;3.800;2023-07-29T06:10:30;22.00;99.90
22779;DHT22;11556;51.194;3.800;2023-07-29T06:12:56;21.60;99.90
22779;DHT22;11556;51.194;3.800;2023-07-29T06:15:22;21.60;99.90
22779;DHT22;11556;51.194;3.800;2023-07-29T06:17:48;21.40;99.90
22779;DHT22;11556;51.194;3.800;2023-07-29T06:20:14;21.40;99.90
22779;DHT22;11556;51.194;3.800;2023-07-29T06:22:41;21.40;99.90
22779;DHT22;11556;51.194;3.800;2023-07-29T06:25:07;21.50;99.90
22779;DHT22;11556;51.194;3.800;2023-07-29T06:27:33;21.40;99.90
22779;DHT22;11556;51.194;3.800;2023-07-29T06:29:59;21.10;99.90
22779;DHT22;11556;51.194;3.800;2023-07-29T06:32:24;20.90;99.90
22779;DHT22;11556;51.194;3.800;2023-07-29T06:34:51;20.60;99.90
22779;DHT22;11556;51.194;3.800;2023-07-29T06:37:19;20.50;99.90
22779;DHT22;11556;51.194;3.800;2023-07-29T06:39:44;20.30;99.90
22779;DHT22;11556;51.194;3.800;2023-07-29T06:42:10;20.10;99.90
22779;DHT22;11556;51.194;3.800;2023-07-29T06:44:36;20.40;99.90
22779;DHT22;11556;51.194;3.800;2023-07-29T06:47:01;20.70;99.90
22779;DHT22;11556;51.194;3.800;2023-07-29T06:49:27;21.10;99.90
22779;DHT22;11556;51.194;3.800;2023-07-29T06:51:52;21.40;99.90
22779;DHT22;11556;51.194;3.800;2023-07-29T06:54:18;21.40;99.90
22779;DHT22;11556;51.194;3.800;2023-07-29T06:56:43;21.40;99.90
22779;DHT22;11556;51.194;3.800;2023-07-29T06:59:09;21.20;99.90
22779;DHT22;11556;51.194;3.800;2023-07-29T07:01:35;21.00;99.90
22779;DHT22;11556;51.194;3.800;2023-07-29T07:04:00;20.90;99.90
22779;DHT22;11556;51.194;3.800;2023-07-29T07:06:26;21.00;99.90
22779;DHT22;11556;51.194;3.800;2023-07-29T07:08:52;21.30;99.90
22779;DHT22;11556;51.194;3.800;2023-07-29T07:11:18;21.50;99.90
22779;DHT22;11556;51.194;3.800;2023-07-29T07:13:44;21.90;99.90
22779;DHT22;11556;51.194;3.800;2023-07-29T07:16:09;22.60;99.90
22779;DHT22;11556;51.194;3.800;2023-07-29T07:18:35;23.80;99.90
22779;DHT22;11556;51.194;3.800;2023-07-29T07:21:01;23.80;99.90
22779;DHT22;11556;51.194;3.800;2023-07-29T07:23:26;23.60;99.90
22779;DHT22;11556;51.194;3.800;2023-07-29T07:25:52;23.60;99.90
22779;DHT22;11556;51.194;3.800;2023-07-29T07:28:17;23.40;99.90
22779;DHT22;11556;51.194;3.800;2023-07-29T07:30:43;23.10;99.90
22779;DHT22;11556;51.194;3.800;2023-07-29T07:33:09;22.80;99.90
22779;DHT22;11556;51.194;3.800;2023-07-29T07:35:35;22.70;99.90
22779;DHT22;11556;51.194;3.800;2023-07-29T07:38:00;22.80;99.90
22779;DHT22;11556;51.194;3.800;2023-07-29T07:40:30;23.20;99.90
22779;DHT22;11556;51.194;3.800;2023-07-29T07:42:55;23.70;99.90
22779;DHT22;11556;51.194;3.800;2023-07-29T07:45:21;24.10;99.90
22779;DHT22;11556;51.194;3.800;2023-07-29T07:47:47;24.30;99.90
22779;DHT22;11556;51.194;3.800;2023-07-29T07:50:12;24.80;99.90
22779;DHT22;11556;51.194;3.800;2023-07-29T07:52:39;25.00;99.90
22779;DHT22;11556;51.194;3.800;2023-07-29T07:55:05;25.30;99.90
22779;DHT22;11556;51.194;3.800;2023-07-29T07:57:31;25.30;99.90
22779;DHT22;11556;51.194;3.800;2023-07-29T07:59:56;25.30;99.90
22779;DHT22;11556;51.194;3.800;2023-07-29T08:02:22;25.50;99.90
22779;DHT22;11556;51.194;3.800;2023-07-29T08:04:47;26.60;99.90
22779;DHT22;11556;51.194;3.800;2023-07-29T08:07:13;27.40;99.90
22779;DHT22;11556;51.194;3.800;2023-07-29T08:09:39;27.50;99.90
22779;DHT22;11556;51.194;3.800;2023-07-29T08:12:05;28.00;99.90
22779;DHT22;11556;51.194;3.800;2023-07-29T08:14:31;28.50;99.90
22779;DHT22;11556;51.194;3.800;2023-07-29T08:16:56;28.90;99.90
22779;DHT22;11556;51.194;3.800;2023-07-29T08:19:23;29.00;99.90
22779;DHT22;11556;51.194;3.800;2023-07-29T08:21:48;29.90;99.90
22779;DHT22;11556;51.194;3.800;2023-07-29T08:24:14;31.60;99.30
22779;DHT22;11556;51.194;3.800;2023-07-29T08:26:39;32.30;95.60
22779;DHT22;11556;51.194;3.800;2023-07-29T08:29:05;31.10;95.70
22779;DHT22;11556;51.194;3.800;2023-07-29T08:31:31;29.50;97.70
22779;DHT22;11556;51.194;3.800;2023-07-29T08:33:59;28.20;99.90
22779;DHT22;11556;51.194;3.800;2023-07-29T08:36:25;28.00;99.90
22779;DHT22;11556;51.194;3.800;2023-07-29T08:38:50;28.10;99.90
22779;DHT22;11556;51.194;3.800;2023-07-29T08:41:25;28.20;99.90
22779;DHT22;11556;51.194;3.800;2023-07-29T08:44:04;27.90;99.90
22779;DHT22;11556;51.194;3.800;2023-07-29T08:46:32;28.60;99.90
22779;DHT22;11556;51.194;3.800;2023-07-29T08:48:59;29.20;99.90
22779;DHT22;11556;51.194;3.800;2023-07-29T08:51:27;30.10;99.00
22779;DHT22;11556;51.194;3.800;2023-07-29T08:53:53;30.60;97.30
22779;DHT22;11556;51.194;3.800;2023-07-29T08:56:19;30.70;96.60
22779;DHT22;11556;51.194;3.800;2023-07-29T08:58:45;29.50;97.70
22779;DHT22;11556;51.194;3.800;2023-07-29T09:01:11;28.60;99.20
22779;DHT22;11556;51.194;3.800;2023-07-29T09:03:37;27.80;99.90
22779;DHT22;11556;51.194;3.800;2023-07-29T09:06:03;27.00;99.90
22779;DHT22;11556;51.194;3.800;2023-07-29T09:08:29;26.60;99.90
22779;DHT22;11556;51.194;3.800;2023-07-29T09:10:55;26.20;99.90
22779;DHT22;11556;51.194;3.800;2023-07-29T09:13:21;25.70;99.90
22779;DHT22;11556;51.194;3.800;2023-07-29T09:15:47;25.10;99.90
22779;DHT22;11556;51.194;3.800;2023-07-29T09:18:16;25.00;99.90
22779;DHT22;11556;51.194;3.800;2023-07-29T09:20:42;25.20;99.90
22779;DHT22;11556;51.194;3.800;2023-07-29T09:23:09;25.10;99.90
22779;DHT22;11556;51.194;3.800;2023-07-29T09:25:39;25.00;99.90
22779;DHT22;11556;51.194;3.800;2023-07-29T09:28:12;24.90;99.90
22779;DHT22;11556;51.194;3.800;2023-07-29T09:30:40;24.50;99.90
22779;DHT22;11556;51.194;3.800;2023-07-29T09:33:06;24.20;99.90
22779;DHT22;11556;51.194;3.800;2023-07-29T09:35:34;23.80;99.90
22779;DHT22;11556;51.194;3.800;2023-07-29T09:38:01;23.60;99.90
22779;DHT22;11556;51.194;3.800;2023-07-29T09:40:26;23.40;99.90
22779;DHT22;11556;51.194;3.800;2023-07-29T09:42:53;23.40;99.90
22779;DHT22;11556;51.194;3.800;2023-07-29T09:45:24;23.30;99.90
22779;DHT22;11556;51.194;3.800;2023-07-29T09:47:50;23.30;99.90
22779;DHT22;11556;51.194;3.800;2023-07-29T09:50:16;23.30;99.90
22779;DHT22;11556;51.194;3.800;2023-07-29T09:52:42;23.10;99.90
22779;DHT22;11556;51.194;3.800;2023-07-29T09:55:12;22.80;99.90
22779;DHT22;11556;51.194;3.800;2023-07-29T09:57:40;22.80;99.90
22779;DHT22;11556;51.194;3.800;2023-07-29T10:00:06;22.90;99.90
22779;DHT22;11556;51.194;3.800;2023-07-29T10:02:38;23.10;99.90
22779;DHT22;11556;51.194;3.800;2023-07-29T10:05:05;23.40;99.90
22779;DHT22;11556;51.194;3.800;2023-07-29T10:07:31;23.80;99.90
22779;DHT22;11556;51.194;3.800;2023-07-29T10:09:58;24.40;99.90
22779;DHT22;11556;51.194;3.800;2023-07-29T10:12:25;25.00;99.90
22779;DHT22;11556;51.194;3.800;2023-07-29T10:14:52;25.40;99.90
22779;DHT22;11556;51.194;3.800;2023-07-29T10:17:20;25.30;99.90
22779;DHT22;11556;51.194;3.800;2023-07-29T10:19:46;25.30;99.90
22779;DHT22;11556;51.194;3.800;2023-07-29T10:22:13;25.20;99.90
22779;DHT22;11556;51.194;3.800;2023-07-29T10:24:43;25.20;99.90
22779;DHT22;11556;51.194;3.800;2023-07-29T10:27:11;25.00;99.90
22779;DHT22;11556;51.194;3.800;2023-07-29T10:29:41;24.60;99.90
22779;DHT22;11556;51.194;3.800;2023-07-29T10:32:11;24.10;99.90
22779;DHT22;11556;51.194;3.800;2023-07-29T10:34:37;23.90;99.90
22779;DHT22;11556;51.194;3.800;2023-07-29T10:37:04;24.40;99.90
22779;DHT22;11556;51.194;3.800;2023-07-29T10:39:40;25.30;99.90
22779;DHT22;11556;51.194;3.800;2023-07-29T10:42:16;26.00;99.90
22779;DHT22;11556;51.194;3.800;2023-07-29T10:49:40;25.50;99.90
22779;DHT22;11556;51.194;3.800;2023-07-29T10:52:06;24.90;99.90
22779;DHT22;11556;51.194;3.800;2023-07-29T10:54:46;24.20;99.90
22779;DHT22;11556;51.194;3.800;2023-07-29T10:57:15;23.60;99.90
22779;DHT22;11556;51.194;3.800;2023-07-29T10:59:56;23.10;99.90
22779;DHT22;11556;51.194;3.800;2023-07-29T11:02:28;22.90;99.90
22779;DHT22;11556;51.194;3.800;2023-07-29T11:04:54;23.00;99.90
22779;DHT22;11556;51.194;3.800;2023-07-29T11:07:25;23.60;99.90
22779;DHT22;11556;51.194;3.800;2023-07-29T11:09:59;24.10;99.90
22779;DHT22;11556;51.194;3.800;2023-07-29T11:12:47;24.90;99.90
22779;DHT22;11556;51.194;3.800;2023-07-29T11:17:46;25.90;99.90
22779;DHT22;11556;51.194;3.800;2023-07-29T11:20:13;26.00;99.90
22779;DHT22;11556;51.194;3.800;2023-07-29T11:22:40;26.20;99.90
22779;DHT22;11556;51.194;3.800;2023-07-29T11:25:08;26.30;99.90
22779;DHT22;11556;51.194;3.800;2023-07-29T11:27:34;26.00;99.90
22779;DHT22;11556;51.194;3.800;2023-07-29T11:30:02;25.90;99.90
22779;DHT22;11556;51.194;3.800;2023-07-29T11:32:30;25.90;99.90
22779;DHT22;11556;51.194;3.800;2023-07-29T11:34:56;26.20;99.90
22779;DHT22;11556;51.194;3.800;2023-07-29T11:37:21;26.30;99.90
22779;DHT22;11556;51.194;3.800;2023-07-29T11:39:47;26.60;99.90
22779;DHT22;11556;51.194;3.800;2023-07-29T11:42:16;27.00;99.90
22779;DHT22;11556;51.194;3.800;2023-07-29T11:44:42;27.70;99.90
22779;DHT22;11556;51.194;3.800;2023-07-29T11:47:11;27.80;99.90
22779;DHT22;11556;51.194;3.800;2023-07-29T11:49:40;27.50;99.90
22779;DHT22;11556;51.194;3.800;2023-07-29T11:52:07;27.50;99.90
22779;DHT22;11556;51.194;3.800;2023-07-29T11:54:36;27.70;99.90
22779;DHT22;11556;51.194;3.800;2023-07-29T11:57:06;28.70;99.90
22779;DHT22;11556;51.194;3.800;2023-07-29T11:59:37;28.80;99.90
22779;DHT22;11556;51.194;3.800;2023-07-29T12:02:09;29.20;99.90
22779;DHT22;11556;51.194;3.800;2023-07-29T12:04:37;29.30;99.90
22779;DHT22;11556;51.194;3.800;2023-07-29T12:07:03;30.10;99.90
22779;DHT22;11556;51.194;3.800;2023-07-29T12:09:29;31.00;99.90
22779;DHT22;11556;51.194;3.800;2023-07-29T12:11:56;30.60;99.90
22779;DHT22;11556;51.194;3.800;2023-07-29T12:14:22;30.30;99.90
22779;DHT22;11556;51.194;3.800;2023-07-29T12:16:51;30.20;99.90
22779;DHT22;11556;51.194;3.800;2023-07-29T12:19:17;29.90;99.90
22779;DHT22;11556;51.194;3.800;2023-07-29T12:21:43;30.10;99.90
22779;DHT22;11556;51.194;3.800;2023-07-29T12:24:09;30.00;99.90
22779;DHT22;11556;51.194;3.800;2023-07-29T12:26:37;29.80;99.90
22779;DHT22;11556;51.194;3.800;2023-07-29T12:31:38;30.70;99.90
22779;DHT22;11556;51.194;3.800;2023-07-29T12:34:04;31.40;99.90
22779;DHT22;11556;51.194;3.800;2023-07-29T12:36:47;31.00;99.90
22779;DHT22;11556;51.194;3.800;2023-07-29T12:41:50;29.50;99.90
22779;DHT22;11556;51.194;3.800;2023-07-29T12:44:16;29.40;99.90
22779;DHT22;11556;51.194;3.800;2023-07-29T12:46:41;30.10;99.90
22779;DHT22;11556;51.194;3.800;2023-07-29T12:49:07;29.60;99.90
22779;DHT22;11556;51.194;3.800;2023-07-29T12:51:33;29.10;99.90
22779;DHT22;11556;51.194;3.800;2023-07-29T12:54:00;29.20;99.90
22779;DHT22;11556;51.194;3.800;2023-07-29T12:56:25;29.40;99.90
22779;DHT22;11556;51.194;3.800;2023-07-29T12:58:51;29.40;99.90
22779;DHT22;11556;51.194;3.800;2023-07-29T13:01:17;29.30;99.90
22779;DHT22;11556;51.194;3.800;2023-07-29T13:03:44;28.90;99.90
22779;DHT22;11556;51.194;3.800;2023-07-29T13:06:09;28.60;99.90
22779;DHT22;11556;51.194;3.800;2023-07-29T13:08:35;28.10;99.90
22779;DHT22;11556;51.194;3.800;2023-07-29T13:11:01;28.10;99.90
22779;DHT22;11556;51.194;3.800;2023-07-29T13:13:27;28.10;99.90
22779;DHT22;11556;51.194;3.800;2023-07-29T13:15:52;27.90;99.90
22779;DHT22;11556;51.194;3.800;2023-07-29T13:18:18;27.90;99.90
22779;DHT22;11556;51.194;3.800;2023-07-29T13:20:43;28.00;99.90
22779;DHT22;11556;51.194;3.800;2023-07-29T13:23:09;27.60;99.90
22779;DHT22;11556;51.194;3.800;2023-07-29T13:25:35;27.40;99.90
22779;DHT22;11556;51.194;3.800;2023-07-29T13:28:00;27.10;99.90
22779;DHT22;11556;51.194;3.800;2023-07-29T13:30:26;27.00;99.90
22779;DHT22;11556;51.194;3.800;2023-07-29T13:32:51;26.90;99.90
22779;DHT22;11556;51.194;3.800;2023-07-29T13:35:17;27.10;99.90
22779;DHT22;11556;51.194;3.800;2023-07-29T13:37:43;27.10;99.90
22779;DHT22;11556;51.194;3.800;2023-07-29T13:40:08;26.90;99.90
22779;DHT22;11556;51.194;3.800;2023-07-29T13:42:34;26.40;99.90
22779;DHT22;11556;51.194;3.800;2023-07-29T13:45:00;25.70;99.90
22779;DHT22;11556;51.194;3.800;2023-07-29T13:47:25;25.30;99.90
22779;DHT22;11556;51.194;3.800;2023-07-29T13:49:51;25.10;99.90
22779;DHT22;11556;51.194;3.800;2023-07-29T13:52:16;25.10;99.90
22779;DHT22;11556;51.194;3.800;2023-07-29T13:54:42;25.80;99.90
22779;DHT22;11556;51.194;3.800;2023-07-29T13:57:08;26.80;99.90
22779;DHT22;11556;51.194;3.800;2023-07-29T13:59:35;27.50;99.90
22779;DHT22;11556;51.194;3.800;2023-07-29T14:02:06;28.60;99.90
22779;DHT22;11556;51.194;3.800;2023-07-29T14:04:32;28.50;99.90
22779;DHT22;11556;51.194;3.800;2023-07-29T14:06:58;28.70;99.90
22779;DHT22;11556;51.194;3.800;2023-07-29T14:09:24;28.60;99.90
22779;DHT22;11556;51.194;3.800;2023-07-29T14:11:50;28.20;99.90
22779;DHT22;11556;51.194;3.800;2023-07-29T14:14:16;27.50;99.90
22779;DHT22;11556;51.194;3.800;2023-07-29T14:16:41;27.10;99.90
22779;DHT22;11556;51.194;3.800;2023-07-29T14:19:07;26.80;99.90
22779;DHT22;11556;51.194;3.800;2023-07-29T14:21:33;26.30;99.90
22779;DHT22;11556;51.194;3.800;2023-07-29T14:23:58;26.00;99.90
22779;DHT22;11556;51.194;3.800;2023-07-29T14:26:24;25.90;99.90
22779;DHT22;11556;51.194;3.800;2023-07-29T14:28:50;26.20;99.90
22779;DHT22;11556;51.194;3.800;2023-07-29T14:31:24;26.20;99.90
22779;DHT22;11556;51.194;3.800;2023-07-29T14:33:49;26.20;99.90
22779;DHT22;11556;51.194;3.800;2023-07-29T14:36:16;26.20;99.90
22779;DHT22;11556;51.194;3.800;2023-07-29T14:38:41;26.30;99.90
22779;DHT22;11556;51.194;3.800;2023-07-29T14:41:07;26.30;99.90
22779;DHT22;11556;51.194;3.800;2023-07-29T14:43:33;26.80;99.90
22779;DHT22;11556;51.194;3.800;2023-07-29T14:45:59;26.70;99.90
22779;DHT22;11556;51.194;3.800;2023-07-29T14:48:24;26.60;99.90
22779;DHT22;11556;51.194;3.800;2023-07-29T14:50:50;26.60;99.90
22779;DHT22;11556;51.194;3.800;2023-07-29T14:53:16;26.70;99.90
22779;DHT22;11556;51.194;3.800;2023-07-29T14:55:41;26.40;99.90
22779;DHT22;11556;51.194;3.800;2023-07-29T14:58:07;26.20;99.90
22779;DHT22;11556;51.194;3.800;2023-07-29T15:00:32;25.70;99.90
22779;DHT22;11556;51.194;3.800;2023-07-29T15:02:58;25.30;99.90
22779;DHT22;11556;51.194;3.800;2023-07-29T15:05:24;25.10;99.90
22779;DHT22;11556;51.194;3.800;2023-07-29T15:07:50;25.30;99.90
22779;DHT22;11556;51.194;3.800;2023-07-29T15:10:16;25.30;99.90
22779;DHT22;11556;51.194;3.800;2023-07-29T15:12:42;25.60;99.90
22779;DHT22;11556;51.194;3.800;2023-07-29T15:15:09;25.80;99.90
22779;DHT22;11556;51.194;3.800;2023-07-29T15:17:34;26.10;99.90
22779;DHT22;11556;51.194;3.800;2023-07-29T15:20:02;26.20;99.90
22779;DHT22;11556;51.194;3.800;2023-07-29T15:22:29;26.30;99.90
22779;DHT22;11556;51.194;3.800;2023-07-29T15:24:55;26.40;99.90
22779;DHT22;11556;51.194;3.800;2023-07-29T15:27:20;26.40;99.90
22779;DHT22;11556;51.194;3.800;2023-07-29T15:29:46;26.50;99.90
22779;DHT22;11556;51.194;3.800;2023-07-29T15:32:11;26.10;99.90
22779;DHT22;11556;51.194;3.800;2023-07-29T15:34:37;26.10;99.90
22779;DHT22;11556;51.194;3.800;2023-07-29T15:37:03;25.90;99.90
22779;DHT22;11556;51.194;3.800;2023-07-29T15:39:29;25.90;99.90
22779;DHT22;11556;51.194;3.800;2023-07-29T15:41:56;26.20;99.90
22779;DHT22;11556;51.194;3.800;2023-07-29T15:44:21;26.20;99.90